createdAt,value
2023-05-12T00:01:17.248Z,11.09
2023-05-12T00:03:44.228Z,11.09
2023-05-12T00:06:11.459Z,11.11
2023-05-12T00:08:38.298Z,11.10
2023-05-12T00:11:04.950Z,11.10
2023-05-12T00:13:31.587Z,11.08
2023-05-12T00:15:59.338Z,11.05
2023-05-12T00:18:28.285Z,11.05
2023-05-12T00:20:55.680Z,11.06
2023-05-12T00:23:23.016Z,11.07
2023-05-12T00:25:50.342Z,11.07
2023-05-12T00:28:18.662Z,11.08
2023-05-12T00:30:45.571Z,11.05
2023-05-12T00:33:12.215Z,11.01
2023-05-12T00:35:38.819Z,11.00
2023-05-12T00:38:05.417Z,10.99
2023-05-12T00:40:32.091Z,10.99
2023-05-12T00:42:58.723Z,11.02
2023-05-12T00:45:25.409Z,11.01
2023-05-12T00:47:53.472Z,11.00
2023-05-12T00:50:21.203Z,11.02
2023-05-12T00:52:51.885Z,10.99
2023-05-12T00:55:18.976Z,10.99
2023-05-12T00:57:45.891Z,10.97
2023-05-12T01:00:13.062Z,10.95
2023-05-12T01:02:40.234Z,10.97
2023-05-12T01:05:07.172Z,10.96
2023-05-12T01:07:33.788Z,10.96
2023-05-12T01:10:00.513Z,10.96
2023-05-12T01:12:28.141Z,10.96
2023-05-12T01:14:56.996Z,10.95
2023-05-12T01:17:34.312Z,10.93
2023-05-12T01:20:04.588Z,10.84
2023-05-12T01:22:33.741Z,10.85
2023-05-12T01:25:07.688Z,10.84
2023-05-12T01:27:34.806Z,10.84
2023-05-12T01:30:04.065Z,10.88
2023-05-12T01:32:30.921Z,10.88
2023-05-12T01:34:57.721Z,10.86
2023-05-12T01:37:27.140Z,10.85
2023-05-12T01:39:53.956Z,10.79
2023-05-12T01:42:20.824Z,10.78
2023-05-12T01:44:47.465Z,10.79
2023-05-12T01:47:15.877Z,10.79
2023-05-12T01:49:42.809Z,10.80
2023-05-12T01:52:09.484Z,10.80
2023-05-12T01:54:36.220Z,10.75
2023-05-12T01:57:02.908Z,10.75
2023-05-12T01:59:29.604Z,10.75
2023-05-12T02:01:56.269Z,10.75
2023-05-12T02:04:23.076Z,10.74
2023-05-12T02:06:49.802Z,10.75
2023-05-12T02:09:16.450Z,10.76
2023-05-12T02:11:43.040Z,10.77
2023-05-12T02:14:09.672Z,10.75
2023-05-12T02:16:36.418Z,10.75
2023-05-12T02:19:03.062Z,10.75
2023-05-12T02:21:29.690Z,10.76
2023-05-12T02:23:56.426Z,10.76
2023-05-12T02:26:23.043Z,10.76
2023-05-12T02:28:49.668Z,10.74
2023-05-12T02:31:16.289Z,10.74
2023-05-12T02:33:43.216Z,10.72
2023-05-12T02:36:09.838Z,10.71
2023-05-12T02:38:36.674Z,10.72
2023-05-12T02:41:03.325Z,10.72
2023-05-12T02:43:29.926Z,10.70
2023-05-12T02:45:56.534Z,10.68
2023-05-12T02:48:23.124Z,10.66
2023-05-12T02:50:49.812Z,10.66
2023-05-12T02:53:16.473Z,10.63
2023-05-12T02:55:43.122Z,10.62
2023-05-12T02:58:10.274Z,10.60
2023-05-12T03:00:36.967Z,10.58
2023-05-12T03:03:03.650Z,10.58
2023-05-12T03:05:30.758Z,10.57
2023-05-12T03:07:57.489Z,10.57
2023-05-12T03:10:24.122Z,10.56
2023-05-12T03:12:50.908Z,10.55
2023-05-12T03:15:17.594Z,10.54
2023-05-12T03:17:44.255Z,10.52
2023-05-12T03:20:11.257Z,10.51
2023-05-12T03:22:38.203Z,10.48
2023-05-12T03:25:05.977Z,10.46
2023-05-12T03:27:33.136Z,10.44
2023-05-12T03:30:05.092Z,10.43
2023-05-12T03:32:31.853Z,10.41
2023-05-12T03:34:58.712Z,10.38
2023-05-12T03:37:25.361Z,10.37
2023-05-12T03:39:51.994Z,10.34
2023-05-12T03:42:19.297Z,10.33
2023-05-12T03:44:45.968Z,10.31
2023-05-12T03:47:13.695Z,10.29
2023-05-12T03:49:40.717Z,10.24
2023-05-12T03:52:07.558Z,10.24
2023-05-12T03:54:36.019Z,10.24
2023-05-12T03:57:03.954Z,10.24
2023-05-12T03:59:31.682Z,10.22
2023-05-12T04:01:59.075Z,10.19
2023-05-12T04:04:25.692Z,10.18
2023-05-12T04:06:52.509Z,10.16
2023-05-12T04:09:20.114Z,10.18
2023-05-12T04:11:46.735Z,10.19
2023-05-12T04:14:13.367Z,10.19
2023-05-12T04:16:40.953Z,10.21
2023-05-12T04:19:07.766Z,10.22
2023-05-12T04:21:34.514Z,10.26
2023-05-12T04:24:01.154Z,10.29
2023-05-12T04:26:27.776Z,10.33
2023-05-12T04:28:54.458Z,10.36
2023-05-12T04:31:21.204Z,10.39
2023-05-12T04:33:48.482Z,10.45
2023-05-12T04:36:15.351Z,10.50
2023-05-12T04:38:42.163Z,10.57
2023-05-12T04:41:09.317Z,10.64
2023-05-12T04:46:05.723Z,10.54
2023-05-12T04:48:32.435Z,10.65
2023-05-12T04:51:00.274Z,10.76
2023-05-12T04:53:27.799Z,10.86
2023-05-12T04:55:56.540Z,10.93
2023-05-12T04:58:23.443Z,10.96
2023-05-12T05:00:50.178Z,11.01
2023-05-12T05:03:16.897Z,11.02
2023-05-12T05:05:43.709Z,11.00
2023-05-12T05:08:10.391Z,11.06
2023-05-12T05:10:37.236Z,11.15
2023-05-12T05:13:04.053Z,11.20
2023-05-12T05:15:30.898Z,11.28
2023-05-12T05:17:59.374Z,11.35
2023-05-12T05:20:29.242Z,11.41
2023-05-12T05:22:56.119Z,11.48
2023-05-12T05:25:22.976Z,11.50
2023-05-12T05:27:49.853Z,11.55
2023-05-12T05:30:16.888Z,11.64
2023-05-12T05:32:43.728Z,11.71
2023-05-12T05:35:10.720Z,11.77
2023-05-12T05:37:37.386Z,11.82
2023-05-12T05:40:04.888Z,11.89
2023-05-12T05:42:31.469Z,11.91
2023-05-12T05:44:58.066Z,11.95
2023-05-12T05:47:24.832Z,12.04
2023-05-12T05:49:51.486Z,12.08
2023-05-12T05:52:18.200Z,12.16
2023-05-12T05:54:44.900Z,12.21
2023-05-12T05:57:11.537Z,12.25
2023-05-12T05:59:38.512Z,12.32
2023-05-12T06:02:05.463Z,12.37
2023-05-12T06:04:32.208Z,12.41
2023-05-12T06:06:58.777Z,12.46
2023-05-12T06:09:25.515Z,12.53
2023-05-12T06:11:52.274Z,12.61
2023-05-12T06:14:18.983Z,12.70
2023-05-12T06:16:45.599Z,12.77
2023-05-12T06:19:12.776Z,12.86
2023-05-12T06:21:39.524Z,12.96
2023-05-12T06:24:06.571Z,12.89
2023-05-12T06:26:33.327Z,12.83
2023-05-12T06:28:59.973Z,12.87
2023-05-12T06:31:27.008Z,12.93
2023-05-12T06:33:53.706Z,13.00
2023-05-12T06:36:20.531Z,13.09
2023-05-12T06:38:47.251Z,13.15
2023-05-12T06:41:13.868Z,13.18
2023-05-12T06:43:40.509Z,13.24
2023-05-12T06:46:07.163Z,13.31
2023-05-12T06:48:33.804Z,13.28
2023-05-12T06:51:00.524Z,13.30
2023-05-12T06:53:27.457Z,13.36
2023-05-12T06:55:55.183Z,13.37
2023-05-12T06:58:22.275Z,13.19
2023-05-12T07:00:49.076Z,13.18
2023-05-12T07:03:16.017Z,13.26
2023-05-12T07:05:42.819Z,13.27
2023-05-12T07:08:09.600Z,13.31
2023-05-12T07:10:36.280Z,13.11
2023-05-12T07:13:02.924Z,13.17
2023-05-12T07:15:31.272Z,13.43
2023-05-12T07:17:59.394Z,13.64
2023-05-12T07:20:26.233Z,13.79
2023-05-12T07:22:54.732Z,13.78
2023-05-12T07:25:22.298Z,13.82
2023-05-12T07:27:50.013Z,14.04
2023-05-12T07:30:17.265Z,13.93
2023-05-12T07:32:44.095Z,14.23
2023-05-12T07:35:10.800Z,14.49
2023-05-12T07:37:38.234Z,14.53
2023-05-12T07:40:05.270Z,14.84
2023-05-12T07:42:31.888Z,14.89
2023-05-12T07:44:58.762Z,15.02
2023-05-12T07:47:25.570Z,15.10
2023-05-12T07:49:52.318Z,15.10
2023-05-12T07:52:18.987Z,15.47
2023-05-12T07:54:45.676Z,15.73
2023-05-12T07:57:12.293Z,15.91
2023-05-12T07:59:38.941Z,16.10
2023-05-12T08:02:05.699Z,16.21
2023-05-12T08:04:32.473Z,16.58
2023-05-12T08:06:59.110Z,16.61
2023-05-12T08:09:25.836Z,16.70
2023-05-12T08:11:52.500Z,16.83
2023-05-12T08:14:19.123Z,16.87
2023-05-12T08:16:46.933Z,17.14
2023-05-12T08:19:14.072Z,17.14
2023-05-12T08:21:40.732Z,17.24
2023-05-12T08:24:07.537Z,17.25
2023-05-12T08:26:34.186Z,17.33
2023-05-12T08:29:01.643Z,17.51
2023-05-12T08:31:28.271Z,17.69
2023-05-12T08:36:26.211Z,17.64
2023-05-12T08:38:52.956Z,17.64
2023-05-12T08:41:25.578Z,17.49
2023-05-12T08:43:53.010Z,17.36
2023-05-12T08:46:20.319Z,17.53
2023-05-12T08:48:50.182Z,17.61
2023-05-12T08:51:19.311Z,17.37
2023-05-12T08:53:49.218Z,17.41
2023-05-12T08:58:49.850Z,17.06
2023-05-12T09:01:18.116Z,17.15
2023-05-12T09:03:45.507Z,16.87
2023-05-12T09:06:13.374Z,16.77
2023-05-12T09:08:40.915Z,16.90
2023-05-12T09:11:12.095Z,17.05
2023-05-12T09:13:46.185Z,16.72
2023-05-12T09:16:13.729Z,16.68
2023-05-12T09:18:49.443Z,16.69
2023-05-12T09:21:16.202Z,16.59
2023-05-12T09:23:56.185Z,16.80
2023-05-12T09:26:24.024Z,16.87
2023-05-12T09:28:53.229Z,16.93
2023-05-12T09:31:22.748Z,16.94
2023-05-12T09:33:50.844Z,16.89
2023-05-12T09:36:19.413Z,16.88
2023-05-12T09:38:46.067Z,16.91
2023-05-12T09:41:13.273Z,17.01
2023-05-12T09:43:46.675Z,17.35
2023-05-12T09:46:14.717Z,17.44
2023-05-12T09:48:42.002Z,17.47
2023-05-12T09:51:10.922Z,17.69
2023-05-12T09:53:43.014Z,17.75
2023-05-12T09:56:11.518Z,17.91
2023-05-12T09:58:43.856Z,18.18
2023-05-12T10:01:21.568Z,18.31
2023-05-12T10:03:53.128Z,18.14
2023-05-12T10:06:32.308Z,18.03
2023-05-12T10:09:18.496Z,18.06
2023-05-12T10:11:47.455Z,18.37
2023-05-12T10:14:14.431Z,18.37
2023-05-12T10:16:41.514Z,18.21
2023-05-12T10:19:10.308Z,18.42
2023-05-12T10:21:39.087Z,18.30
2023-05-12T10:24:06.321Z,18.17
2023-05-12T10:26:39.939Z,18.35
2023-05-12T10:29:07.044Z,18.32
2023-05-12T10:31:36.112Z,18.57
2023-05-12T10:34:03.577Z,18.80
2023-05-12T10:36:33.556Z,18.87
2023-05-12T10:39:06.455Z,18.72
2023-05-12T10:41:35.308Z,18.81
2023-05-12T10:44:02.140Z,18.71
2023-05-12T10:46:30.563Z,18.90
2023-05-12T10:49:04.544Z,18.94
2023-05-12T10:51:33.341Z,18.82
2023-05-12T10:54:08.043Z,18.76
2023-05-12T10:56:38.402Z,18.83
2023-05-12T10:59:14.876Z,18.85
2023-05-12T11:01:43.876Z,18.75
2023-05-12T11:04:16.213Z,19.06
2023-05-12T11:06:45.202Z,19.34
2023-05-12T11:09:13.610Z,19.51
2023-05-12T11:11:40.852Z,19.64
2023-05-12T11:14:08.567Z,19.88
2023-05-12T11:16:42.166Z,20.03
2023-05-12T11:19:08.970Z,20.09
2023-05-12T11:21:36.145Z,20.10
2023-05-12T11:24:03.560Z,20.21
2023-05-12T11:26:30.729Z,20.71
2023-05-12T11:28:58.821Z,21.05
2023-05-12T11:31:26.127Z,21.05
2023-05-12T11:34:11.866Z,20.90
2023-05-12T11:36:42.311Z,21.01
2023-05-12T11:39:23.394Z,20.61
2023-05-12T11:41:56.672Z,20.49
2023-05-12T11:44:29.350Z,20.25
2023-05-12T11:47:11.523Z,20.12
2023-05-12T11:49:52.374Z,20.54
2023-05-12T11:52:21.258Z,20.71
2023-05-12T11:54:52.707Z,20.99
2023-05-12T11:57:30.851Z,21.19
2023-05-12T12:00:07.039Z,21.36
2023-05-12T12:02:36.051Z,21.30
2023-05-12T12:05:03.158Z,21.45
2023-05-12T12:07:35.664Z,20.73
2023-05-12T12:10:16.858Z,20.43
2023-05-12T12:12:44.214Z,20.76
2023-05-12T12:15:12.082Z,20.57
2023-05-12T12:17:40.214Z,20.31
2023-05-12T12:20:08.162Z,20.38
2023-05-12T12:22:35.426Z,20.59
2023-05-12T12:25:05.159Z,20.73
2023-05-12T12:27:32.076Z,21.23
2023-05-12T12:29:59.090Z,20.79
2023-05-12T12:32:25.790Z,21.13
2023-05-12T12:34:53.441Z,21.36
2023-05-12T12:37:20.154Z,21.65
2023-05-12T12:39:47.970Z,21.63
2023-05-12T12:42:15.729Z,21.35
2023-05-12T12:44:42.634Z,21.32
2023-05-12T12:47:09.606Z,21.00
2023-05-12T12:49:36.385Z,20.57
2023-05-12T12:52:03.137Z,20.52
2023-05-12T12:54:29.880Z,20.23
2023-05-12T12:56:56.878Z,20.33
2023-05-12T12:59:23.614Z,20.74
2023-05-12T13:01:50.623Z,20.67
2023-05-12T13:04:22.334Z,20.73
2023-05-12T13:06:49.598Z,20.43
2023-05-12T13:09:19.782Z,20.42
2023-05-12T13:11:47.387Z,20.27
2023-05-12T13:14:14.351Z,20.17
2023-05-12T13:16:41.284Z,20.28
2023-05-12T13:19:08.458Z,20.28
2023-05-12T13:21:35.398Z,20.23
2023-05-12T13:24:02.191Z,20.14
2023-05-12T13:26:28.914Z,20.16
2023-05-12T13:28:55.696Z,20.01
2023-05-12T13:31:22.566Z,19.88
2023-05-12T13:33:49.374Z,19.72
2023-05-12T13:36:16.221Z,19.58
2023-05-12T13:38:43.222Z,19.62
2023-05-12T13:41:10.135Z,19.63
2023-05-12T13:43:37.381Z,19.54
2023-05-12T13:46:04.148Z,19.41
2023-05-12T13:48:31.176Z,19.41
2023-05-12T13:50:58.952Z,19.37
2023-05-12T13:53:25.689Z,19.47
2023-05-12T13:55:52.384Z,19.47
2023-05-12T13:58:19.275Z,19.54
2023-05-12T14:00:47.999Z,19.45
2023-05-12T14:03:15.841Z,19.56
2023-05-12T14:05:42.758Z,19.78
2023-05-12T14:08:09.573Z,20.18
2023-05-12T14:10:36.528Z,20.46
2023-05-12T14:13:03.491Z,20.54
2023-05-12T14:15:47.185Z,20.82
2023-05-12T14:18:16.427Z,21.22
2023-05-12T14:20:43.245Z,21.05
2023-05-12T14:23:09.973Z,21.51
2023-05-12T14:25:36.724Z,21.51
2023-05-12T14:28:03.848Z,21.02
2023-05-12T14:30:30.660Z,21.09
2023-05-12T14:32:57.448Z,20.86
2023-05-12T14:35:27.681Z,20.86
2023-05-12T14:37:55.232Z,20.59
2023-05-12T14:40:22.152Z,20.57
2023-05-12T14:42:49.099Z,20.47
2023-05-12T14:45:16.102Z,20.51
2023-05-12T14:47:42.871Z,20.29
2023-05-12T14:50:10.589Z,20.23
2023-05-12T14:52:40.218Z,20.36
2023-05-12T14:55:11.901Z,20.46
2023-05-12T14:57:42.422Z,20.37
2023-05-12T15:00:13.675Z,20.23
2023-05-12T15:02:41.907Z,20.11
2023-05-12T15:05:10.565Z,19.95
2023-05-12T15:07:37.977Z,20.02
2023-05-12T15:10:05.812Z,20.02
2023-05-12T15:12:33.408Z,20.15
2023-05-12T15:15:02.322Z,20.12
2023-05-12T15:17:29.321Z,20.09
2023-05-12T15:19:56.394Z,20.14
2023-05-12T15:22:23.073Z,20.10
2023-05-12T15:24:49.722Z,20.20
2023-05-12T15:27:16.359Z,20.06
2023-05-12T15:29:43.116Z,20.05
2023-05-12T15:32:09.850Z,19.94
2023-05-12T15:34:36.687Z,19.83
2023-05-12T15:37:03.736Z,19.69
2023-05-12T15:39:30.426Z,19.64
2023-05-12T15:41:57.296Z,19.55
2023-05-12T15:44:24.766Z,19.59
2023-05-12T15:46:51.505Z,19.43
2023-05-12T15:49:18.435Z,19.21
2023-05-12T15:51:45.188Z,19.23
2023-05-12T15:54:12.609Z,19.23
2023-05-12T15:56:39.422Z,19.13
2023-05-12T15:59:06.956Z,19.13
2023-05-12T16:01:34.031Z,19.08
2023-05-12T16:04:01.061Z,19.05
2023-05-12T16:06:27.840Z,19.13
2023-05-12T16:08:54.586Z,19.04
2023-05-12T16:11:21.602Z,19.00
2023-05-12T16:13:48.499Z,18.74
2023-05-12T16:16:16.751Z,18.49
2023-05-12T16:18:43.678Z,18.44
2023-05-12T16:21:11.859Z,18.53
2023-05-12T16:23:38.643Z,18.51
2023-05-12T16:26:06.495Z,18.52
2023-05-12T16:28:34.667Z,18.44
2023-05-12T16:31:02.542Z,18.48
2023-05-12T16:33:29.940Z,18.46
2023-05-12T16:35:56.733Z,18.34
2023-05-12T16:38:23.569Z,18.34
2023-05-12T16:40:50.530Z,18.34
2023-05-12T16:43:17.274Z,18.30
2023-05-12T16:46:04.329Z,18.16
2023-05-12T16:48:34.548Z,18.23
2023-05-12T16:51:02.596Z,18.26
2023-05-12T16:53:30.026Z,18.20
2023-05-12T16:55:57.653Z,18.23
2023-05-12T16:58:25.226Z,18.23
2023-05-12T17:00:52.266Z,18.17
2023-05-12T17:03:19.162Z,18.15
2023-05-12T17:05:47.115Z,18.03
2023-05-12T17:08:14.079Z,17.94
2023-05-12T17:10:40.781Z,17.49
2023-05-12T17:13:08.231Z,17.55
2023-05-12T17:15:37.507Z,17.53
2023-05-12T17:18:04.199Z,17.31
2023-05-12T17:20:31.019Z,17.38
2023-05-12T17:22:57.977Z,17.41
2023-05-12T17:25:25.153Z,17.37
2023-05-12T17:27:51.880Z,17.41
2023-05-12T17:30:18.876Z,17.45
2023-05-12T17:32:45.709Z,17.34
2023-05-12T17:35:12.560Z,17.13
2023-05-12T17:37:39.725Z,17.08
2023-05-12T17:40:08.124Z,16.63
2023-05-12T17:42:35.395Z,16.86
2023-05-12T17:45:02.521Z,16.88
2023-05-12T17:47:29.193Z,16.83
2023-05-12T17:49:56.743Z,16.77
2023-05-12T17:52:23.677Z,16.80
2023-05-12T17:54:55.930Z,16.66
2023-05-12T17:57:22.964Z,16.45
2023-05-12T17:59:49.851Z,16.31
2023-05-12T18:02:16.777Z,16.39
2023-05-12T18:04:43.653Z,16.45
2023-05-12T18:07:10.543Z,16.48
2023-05-12T18:09:37.320Z,16.47
2023-05-12T18:12:04.349Z,16.45
2023-05-12T18:14:31.073Z,16.40
2023-05-12T18:16:57.935Z,16.38
2023-05-12T18:19:24.925Z,16.34
2023-05-12T18:21:54.543Z,16.28
2023-05-12T18:24:21.488Z,16.24
2023-05-12T18:26:48.346Z,16.19
2023-05-12T18:29:15.001Z,16.14
2023-05-12T18:31:44.288Z,16.05
2023-05-12T18:34:11.272Z,15.89
2023-05-12T18:36:38.139Z,15.80
2023-05-12T18:39:06.560Z,15.78
2023-05-12T18:41:33.318Z,15.77
2023-05-12T18:44:00.121Z,15.61
2023-05-12T18:46:27.100Z,15.62
2023-05-12T18:48:54.024Z,15.55
2023-05-12T18:51:21.067Z,15.47
2023-05-12T18:53:47.970Z,15.44
2023-05-12T18:56:14.758Z,15.38
2023-05-12T18:58:41.653Z,15.31
2023-05-12T19:01:08.655Z,15.25
2023-05-12T19:03:35.609Z,15.16
2023-05-12T19:06:02.470Z,15.11
2023-05-12T19:08:29.461Z,15.05
2023-05-12T19:10:56.328Z,14.95
2023-05-12T19:13:23.048Z,14.92
2023-05-12T19:15:49.906Z,14.89
2023-05-12T19:18:17.378Z,14.80
2023-05-12T19:20:44.100Z,14.75
2023-05-12T19:23:11.126Z,14.71
2023-05-12T19:25:37.963Z,14.68
2023-05-12T19:28:05.107Z,14.60
2023-05-12T19:30:32.284Z,14.50
2023-05-12T19:32:59.351Z,14.45
2023-05-12T19:35:26.783Z,14.38
2023-05-12T19:37:53.812Z,14.31
2023-05-12T19:40:20.752Z,14.26
2023-05-12T19:42:47.819Z,14.22
2023-05-12T19:45:15.799Z,14.12
2023-05-12T19:47:43.123Z,14.05
2023-05-12T19:50:10.697Z,14.01
2023-05-12T19:52:38.185Z,13.94
2023-05-12T19:55:06.842Z,13.87
2023-05-12T19:57:33.894Z,13.79
2023-05-12T20:00:00.847Z,13.68
2023-05-12T20:02:31.069Z,13.63
2023-05-12T20:05:01.566Z,13.57
2023-05-12T20:07:28.813Z,13.50
2023-05-12T20:09:55.834Z,13.42
2023-05-12T20:12:22.691Z,13.37
2023-05-12T20:14:50.046Z,13.29
2023-05-12T20:17:16.816Z,13.25
2023-05-12T20:19:43.691Z,13.18
2023-05-12T20:22:10.778Z,13.10
2023-05-12T20:24:37.550Z,13.05
2023-05-12T20:27:04.512Z,13.01
2023-05-12T20:29:31.411Z,12.94
2023-05-12T20:31:58.262Z,12.86
2023-05-12T20:34:25.130Z,12.77
2023-05-12T20:36:52.344Z,12.70
2023-05-12T20:39:19.907Z,12.63
2023-05-12T20:41:46.606Z,12.60
2023-05-12T20:44:13.347Z,12.54
2023-05-12T20:46:40.338Z,12.48
2023-05-12T20:49:07.512Z,12.43
2023-05-12T20:51:34.734Z,12.39
2023-05-12T20:54:01.703Z,12.36
2023-05-12T20:56:28.550Z,12.31
2023-05-12T20:58:57.427Z,12.28
2023-05-12T21:01:24.528Z,12.23
2023-05-12T21:03:51.379Z,12.19
2023-05-12T21:06:18.361Z,12.16
2023-05-12T21:08:46.829Z,12.11
2023-05-12T21:11:18.439Z,12.07
2023-05-12T21:13:47.560Z,12.13
2023-05-12T21:16:15.467Z,12.05
2023-05-12T21:18:42.689Z,12.02
2023-05-12T21:21:09.701Z,12.01
2023-05-12T21:23:37.675Z,12.01
2023-05-12T21:26:05.111Z,12.00
2023-05-12T21:28:32.234Z,12.01
2023-05-12T21:30:59.212Z,11.84
2023-05-12T21:33:26.138Z,11.81
2023-05-12T21:35:53.072Z,11.80
2023-05-12T21:38:21.041Z,11.83
2023-05-12T21:40:55.227Z,11.81
2023-05-12T21:43:22.204Z,11.87
2023-05-12T21:45:49.149Z,11.85
2023-05-12T21:48:16.027Z,11.85
2023-05-12T21:50:42.874Z,11.80
2023-05-12T21:53:09.755Z,11.65
2023-05-12T21:55:36.597Z,11.64
2023-05-12T21:58:03.454Z,11.67
2023-05-12T22:00:30.894Z,11.72
2023-05-12T22:02:58.041Z,11.75
2023-05-12T22:05:25.036Z,11.79
2023-05-12T22:07:51.972Z,11.81
2023-05-12T22:10:19.195Z,11.70
2023-05-12T22:12:46.768Z,11.59
2023-05-12T22:15:13.510Z,11.53
2023-05-12T22:17:40.483Z,11.56
2023-05-12T22:20:09.235Z,11.59
2023-05-12T22:22:36.257Z,11.63
2023-05-12T22:25:04.761Z,11.65
2023-05-12T22:27:31.910Z,11.63
2023-05-12T22:29:59.044Z,11.53
2023-05-12T22:32:26.600Z,11.57
2023-05-12T22:34:54.214Z,11.59
2023-05-12T22:37:22.444Z,11.56
2023-05-12T22:39:49.277Z,11.52
2023-05-12T22:42:15.928Z,11.53
2023-05-12T22:44:42.567Z,11.59
2023-05-12T22:47:09.349Z,11.61
2023-05-12T22:49:36.106Z,11.63
2023-05-12T22:52:02.736Z,11.62
2023-05-12T22:54:29.456Z,11.66
2023-05-12T22:56:56.176Z,11.64
2023-05-12T22:59:22.941Z,11.64
2023-05-12T23:01:49.575Z,11.64
2023-05-12T23:04:16.448Z,11.68
2023-05-12T23:06:43.522Z,11.73
2023-05-12T23:09:10.198Z,11.77
2023-05-12T23:11:36.977Z,11.73
2023-05-12T23:14:03.620Z,11.74
2023-05-12T23:16:30.410Z,11.76
2023-05-12T23:18:57.601Z,11.78
2023-05-12T23:21:24.265Z,11.81
2023-05-12T23:23:50.877Z,11.84
2023-05-12T23:26:17.508Z,11.84
2023-05-12T23:28:44.117Z,11.85
2023-05-12T23:31:10.780Z,11.73
2023-05-12T23:33:37.592Z,11.77
2023-05-12T23:36:04.650Z,11.74
2023-05-12T23:38:31.261Z,11.74
2023-05-12T23:40:57.982Z,11.68
2023-05-12T23:43:24.700Z,11.68
2023-05-12T23:45:51.424Z,11.71
2023-05-12T23:48:18.086Z,11.73
2023-05-12T23:50:44.666Z,11.72
2023-05-12T23:53:11.368Z,11.73
2023-05-12T23:55:38.091Z,11.72
2023-05-12T23:58:04.843Z,11.74
